Perkins, GA (30822)

6:11 AM EDT on July 23, 2016 (GMT -0400)
South Waynesboro Ga. | | Change Station

Elev 302 ft 33.06 °N, 82.00 °W | Updated 14 minutes ago

Clear
Clear
72.9 °F
Feels Like 72.9 °F
N
0.0
Wind Variable Wind from SSW

Today
High -- | Low -- °F
--% Chance of Precip.
Yesterday
High -- | Low -- °F
Precip. -- in
Pressure 30.02 in
Visibility 10.0 miles
Clouds Clear
Dew Point 71 °F
Humidity 95%
Rainfall 0.00 in
Snow Depth Not available.
6:35 AM 8:32 PM
Waning Gibbous, 86% visible
METAR KTBR 230955Z AUTO 00000KT 10SM CLR 23/23 A3002 RMK AO2 T02310225
Pressure 30.02 in
Visibility 10.0 miles
Clouds Clear
Dew Point 71 °F
Humidity 95%
Rainfall 0.00 in
Snow Depth Not available.
6:35 AM 8:32 PM
Waning Gibbous, 86% visible
METAR KTBR 230955Z AUTO 00000KT 10SM CLR 23/23 A3002 RMK AO2 T02310225

10-Day Weather Forecast

Almanac

Astronomy

Jul. 23, 2016 Rise Set
Actual Time
Civil Twilight
Nautical Twilight
Astronomical Twilight
Moon
Length of Visible Light
Length of Day
Tomorrow will be .
, % of the Moon is Illuminated

Today's Extremes

State Highs State Lows

Community

WunderPhotos

Upload Photos

1,926,789 photos uploaded!

WunderBlog® & News

Nearby

Air Quality

  Air Quality AQ Index Pollutant
Not available.

Snow Depth

Station Depth Elevation

Earthquake Activity

City Distance Mag. Time & Date
Minimum magnitude displayed is 2.5.

Coastal Water Temperatures

Place Temperature

Stations

Nearby Weather Stations

Station Location Temp. Windchill Dew Point Humidity Wind Precip. Elev Updated Type
                   

Watches & Warnings

There are currently no watches in effect.